Granger, Washington
Current Conditions -  °F | °C
As of 5:53 PM on Sunday 23 Nov 2014 (Local Time) from KYKM Reporting Station
Clear Clear  
Wind Chill: 39°   Ceiling: Unl
Heat Index: 45°   Visibility: 10mi
Dew Point: 30°   Wind: 13mph
Humidity: 56%   Direction: 250°WSW
Pressure: 30.14"   Gusts: NA
Location:  46.34°N, 120.19°W
Report Text: KYKM 240153Z 25011KT 10SM CLR 07/M01 A3014 RMK AO2 SLP216 T00721011
Loading
Personal Weather Stations






























Interactive Weather Map New forecast layout! Learn more

10-Day Weather Forecast

Advertisements
Track Severe Weather on mobile